Olamon, Maine
Current Conditions -  °F | °C
As of 10:18 AM on Sunday 21 Dec 2014 (Local Time) from KBGR Reporting Station
Overcast Overcast  
Wind Chill: 21°   Ceiling: 800
Heat Index: 26°   Visibility: 10mi
Dew Point: 23°   Wind: 5mph
Humidity: 88%   Direction: 340°NNW
Pressure: 30.37"   Gusts: NA
Location:  45.12°N, 68.6°W
Report Text: KBGR 211518Z 34004KT 10SM BKN008 OVC035 M03/M05 A3037 RMK AO2 T10331050
Loading
Personal Weather Stations






























Interactive Weather Map New forecast layout! Learn more

10-Day Weather Forecast

Advertisements
Track Severe Weather on mobile